sensor_id;sensor_type;location;lat;lon;timestamp;P1;durP1;ratioP1;P2;durP2;ratioP2
63738;SDS011;68816;45.558;10.070;2024-03-22T00:01:54;107.55;;;56.72;;
63738;SDS011;68816;45.558;10.070;2024-03-22T00:04:21;110.20;;;58.05;;
63738;SDS011;68816;45.558;10.070;2024-03-22T00:06:47;109.82;;;57.70;;
63738;SDS011;68816;45.558;10.070;2024-03-22T00:09:17;111.22;;;58.63;;
63738;SDS011;68816;45.558;10.070;2024-03-22T00:11:43;114.30;;;58.35;;
63738;SDS011;68816;45.558;10.070;2024-03-22T00:14:09;108.65;;;56.17;;
63738;SDS011;68816;45.558;10.070;2024-03-22T00:16:35;110.22;;;56.75;;
63738;SDS011;68816;45.558;10.070;2024-03-22T00:19:01;111.07;;;56.30;;
63738;SDS011;68816;45.558;10.070;2024-03-22T00:21:27;101.93;;;55.50;;
63738;SDS011;68816;45.558;10.070;2024-03-22T00:23:54;101.43;;;54.55;;
63738;SDS011;68816;45.558;10.070;2024-03-22T00:26:20;107.10;;;55.03;;
63738;SDS011;68816;45.558;10.070;2024-03-22T00:28:46;106.13;;;55.10;;
63738;SDS011;68816;45.558;10.070;2024-03-22T00:31:11;106.13;;;54.22;;
63738;SDS011;68816;45.558;10.070;2024-03-22T00:33:37;97.32;;;53.47;;
63738;SDS011;68816;45.558;10.070;2024-03-22T00:36:02;105.78;;;54.10;;
63738;SDS011;68816;45.558;10.070;2024-03-22T00:38:28;106.97;;;53.83;;
63738;SDS011;68816;45.558;10.070;2024-03-22T00:40:54;101.30;;;54.03;;
63738;SDS011;68816;45.558;10.070;2024-03-22T00:43:20;100.93;;;54.20;;
63738;SDS011;68816;45.558;10.070;2024-03-22T00:45:46;97.43;;;53.13;;
63738;SDS011;68816;45.558;10.070;2024-03-22T00:48:11;106.15;;;54.22;;
63738;SDS011;68816;45.558;10.070;2024-03-22T00:50:37;108.93;;;53.28;;
63738;SDS011;68816;45.558;10.070;2024-03-22T00:53:02;103.05;;;55.70;;
63738;SDS011;68816;45.558;10.070;2024-03-22T00:55:30;103.90;;;53.45;;
63738;SDS011;68816;45.558;10.070;2024-03-22T00:57:56;112.80;;;57.90;;
63738;SDS011;68816;45.558;10.070;2024-03-22T01:00:21;111.75;;;55.65;;
63738;SDS011;68816;45.558;10.070;2024-03-22T01:02:47;116.28;;;55.88;;
63738;SDS011;68816;45.558;10.070;2024-03-22T01:05:13;109.15;;;55.40;;
63738;SDS011;68816;45.558;10.070;2024-03-22T01:07:39;110.03;;;55.35;;
63738;SDS011;68816;45.558;10.070;2024-03-22T01:10:05;109.28;;;55.92;;
63738;SDS011;68816;45.558;10.070;2024-03-22T01:12:31;102.85;;;53.80;;
63738;SDS011;68816;45.558;10.070;2024-03-22T01:14:56;107.35;;;55.42;;
63738;SDS011;68816;45.558;10.070;2024-03-22T01:17:23;103.57;;;53.72;;
63738;SDS011;68816;45.558;10.070;2024-03-22T01:19:49;107.82;;;54.70;;
63738;SDS011;68816;45.558;10.070;2024-03-22T01:22:15;106.80;;;54.78;;
63738;SDS011;68816;45.558;10.070;2024-03-22T01:24:41;105.10;;;55.08;;
63738;SDS011;68816;45.558;10.070;2024-03-22T01:27:07;108.40;;;55.33;;
63738;SDS011;68816;45.558;10.070;2024-03-22T01:29:32;106.30;;;55.20;;
63738;SDS011;68816;45.558;10.070;2024-03-22T01:31:58;106.55;;;56.53;;
63738;SDS011;68816;45.558;10.070;2024-03-22T01:34:24;101.13;;;54.53;;
63738;SDS011;68816;45.558;10.070;2024-03-22T01:36:49;109.57;;;55.10;;
63738;SDS011;68816;45.558;10.070;2024-03-22T01:39:16;103.28;;;54.72;;
63738;SDS011;68816;45.558;10.070;2024-03-22T01:41:42;110.25;;;55.72;;
63738;SDS011;68816;45.558;10.070;2024-03-22T01:44:09;102.43;;;54.70;;
63738;SDS011;68816;45.558;10.070;2024-03-22T01:46:34;102.32;;;53.45;;
63738;SDS011;68816;45.558;10.070;2024-03-22T01:49:00;100.28;;;52.55;;
63738;SDS011;68816;45.558;10.070;2024-03-22T01:51:26;104.03;;;53.40;;
63738;SDS011;68816;45.558;10.070;2024-03-22T01:53:52;99.05;;;53.88;;
63738;SDS011;68816;45.558;10.070;2024-03-22T01:56:19;114.38;;;55.97;;
63738;SDS011;68816;45.558;10.070;2024-03-22T01:58:44;104.47;;;54.58;;
63738;SDS011;68816;45.558;10.070;2024-03-22T02:01:10;110.85;;;57.15;;
63738;SDS011;68816;45.558;10.070;2024-03-22T02:03:36;101.85;;;52.67;;
63738;SDS011;68816;45.558;10.070;2024-03-22T02:06:01;104.13;;;54.97;;
63738;SDS011;68816;45.558;10.070;2024-03-22T02:08:27;108.05;;;55.28;;
63738;SDS011;68816;45.558;10.070;2024-03-22T02:10:53;113.22;;;55.38;;
63738;SDS011;68816;45.558;10.070;2024-03-22T02:13:18;106.25;;;54.65;;
63738;SDS011;68816;45.558;10.070;2024-03-22T02:15:44;105.07;;;55.38;;
63738;SDS011;68816;45.558;10.070;2024-03-22T02:18:09;107.93;;;56.60;;
63738;SDS011;68816;45.558;10.070;2024-03-22T02:20:35;115.57;;;56.33;;
63738;SDS011;68816;45.558;10.070;2024-03-22T02:23:00;123.28;;;60.15;;
63738;SDS011;68816;45.558;10.070;2024-03-22T02:25:26;106.63;;;56.25;;
63738;SDS011;68816;45.558;10.070;2024-03-22T02:27:51;113.13;;;56.97;;
63738;SDS011;68816;45.558;10.070;2024-03-22T02:30:17;111.50;;;56.53;;
63738;SDS011;68816;45.558;10.070;2024-03-22T02:32:42;119.95;;;56.30;;
63738;SDS011;68816;45.558;10.070;2024-03-22T02:35:08;109.05;;;54.92;;
63738;SDS011;68816;45.558;10.070;2024-03-22T02:37:34;119.68;;;59.17;;
63738;SDS011;68816;45.558;10.070;2024-03-22T02:39:59;112.25;;;55.97;;
63738;SDS011;68816;45.558;10.070;2024-03-22T02:42:25;115.70;;;57.85;;
63738;SDS011;68816;45.558;10.070;2024-03-22T02:44:51;118.40;;;57.97;;
63738;SDS011;68816;45.558;10.070;2024-03-22T02:47:17;116.03;;;57.70;;
63738;SDS011;68816;45.558;10.070;2024-03-22T02:49:42;112.95;;;57.58;;
63738;SDS011;68816;45.558;10.070;2024-03-22T02:52:08;112.20;;;55.72;;
63738;SDS011;68816;45.558;10.070;2024-03-22T02:54:33;114.05;;;56.80;;
63738;SDS011;68816;45.558;10.070;2024-03-22T02:56:59;104.75;;;55.00;;
63738;SDS011;68816;45.558;10.070;2024-03-22T02:59:27;110.80;;;57.00;;
63738;SDS011;68816;45.558;10.070;2024-03-22T03:01:53;114.85;;;59.65;;
63738;SDS011;68816;45.558;10.070;2024-03-22T03:04:19;122.45;;;59.08;;
63738;SDS011;68816;45.558;10.070;2024-03-22T03:06:45;115.35;;;57.53;;
63738;SDS011;68816;45.558;10.070;2024-03-22T03:09:10;111.95;;;57.72;;
63738;SDS011;68816;45.558;10.070;2024-03-22T03:11:38;112.07;;;57.17;;
63738;SDS011;68816;45.558;10.070;2024-03-22T03:14:04;118.40;;;58.03;;
63738;SDS011;68816;45.558;10.070;2024-03-22T03:16:29;112.28;;;56.72;;
63738;SDS011;68816;45.558;10.070;2024-03-22T03:18:55;117.18;;;57.38;;
63738;SDS011;68816;45.558;10.070;2024-03-22T03:21:20;115.03;;;57.00;;
63738;SDS011;68816;45.558;10.070;2024-03-22T03:33:27;111.60;;;56.92;;
63738;SDS011;68816;45.558;10.070;2024-03-22T03:35:52;115.65;;;57.35;;
63738;SDS011;68816;45.558;10.070;2024-03-22T03:38:18;114.85;;;55.85;;
63738;SDS011;68816;45.558;10.070;2024-03-22T03:40:43;115.53;;;56.72;;
63738;SDS011;68816;45.558;10.070;2024-03-22T03:43:09;110.88;;;54.97;;
63738;SDS011;68816;45.558;10.070;2024-03-22T03:45:38;107.55;;;55.55;;
63738;SDS011;68816;45.558;10.070;2024-03-22T03:48:03;109.15;;;55.60;;
63738;SDS011;68816;45.558;10.070;2024-03-22T03:50:29;112.75;;;54.70;;
63738;SDS011;68816;45.558;10.070;2024-03-22T03:52:55;111.40;;;55.15;;
63738;SDS011;68816;45.558;10.070;2024-03-22T03:55:21;110.38;;;56.30;;
63738;SDS011;68816;45.558;10.070;2024-03-22T03:57:49;118.32;;;56.45;;
63738;SDS011;68816;45.558;10.070;2024-03-22T04:00:15;113.30;;;55.25;;
63738;SDS011;68816;45.558;10.070;2024-03-22T04:02:41;117.28;;;55.05;;
63738;SDS011;68816;45.558;10.070;2024-03-22T04:05:07;123.82;;;58.40;;
63738;SDS011;68816;45.558;10.070;2024-03-22T04:07:33;121.82;;;58.55;;
63738;SDS011;68816;45.558;10.070;2024-03-22T04:09:58;120.35;;;58.47;;
63738;SDS011;68816;45.558;10.070;2024-03-22T04:12:25;119.72;;;57.30;;
63738;SDS011;68816;45.558;10.070;2024-03-22T04:14:52;117.78;;;55.92;;
63738;SDS011;68816;45.558;10.070;2024-03-22T04:17:18;122.40;;;58.30;;
63738;SDS011;68816;45.558;10.070;2024-03-22T04:19:43;125.50;;;59.65;;
63738;SDS011;68816;45.558;10.070;2024-03-22T04:22:09;118.82;;;57.72;;
63738;SDS011;68816;45.558;10.070;2024-03-22T04:24:34;120.70;;;55.28;;
63738;SDS011;68816;45.558;10.070;2024-03-22T04:27:00;116.25;;;56.20;;
63738;SDS011;68816;45.558;10.070;2024-03-22T04:29:26;121.85;;;56.78;;
63738;SDS011;68816;45.558;10.070;2024-03-22T04:31:51;118.32;;;57.50;;
63738;SDS011;68816;45.558;10.070;2024-03-22T04:34:17;118.78;;;57.85;;
63738;SDS011;68816;45.558;10.070;2024-03-22T04:36:42;135.38;;;61.50;;
63738;SDS011;68816;45.558;10.070;2024-03-22T04:39:08;138.27;;;63.33;;
63738;SDS011;68816;45.558;10.070;2024-03-22T04:41:35;130.95;;;62.10;;
63738;SDS011;68816;45.558;10.070;2024-03-22T04:44:00;125.07;;;59.65;;
63738;SDS011;68816;45.558;10.070;2024-03-22T04:46:26;131.02;;;61.70;;
63738;SDS011;68816;45.558;10.070;2024-03-22T04:48:52;122.45;;;58.45;;
63738;SDS011;68816;45.558;10.070;2024-03-22T04:51:17;122.88;;;57.88;;
63738;SDS011;68816;45.558;10.070;2024-03-22T04:53:43;118.95;;;57.58;;
63738;SDS011;68816;45.558;10.070;2024-03-22T04:56:09;129.48;;;57.65;;
63738;SDS011;68816;45.558;10.070;2024-03-22T04:58:35;123.85;;;58.10;;
63738;SDS011;68816;45.558;10.070;2024-03-22T05:01:00;122.80;;;57.53;;
63738;SDS011;68816;45.558;10.070;2024-03-22T05:03:26;120.90;;;56.65;;
63738;SDS011;68816;45.558;10.070;2024-03-22T05:05:52;122.20;;;56.53;;
63738;SDS011;68816;45.558;10.070;2024-03-22T05:08:17;125.95;;;57.70;;
63738;SDS011;68816;45.558;10.070;2024-03-22T05:10:43;121.28;;;58.53;;
63738;SDS011;68816;45.558;10.070;2024-03-22T05:13:08;118.35;;;55.95;;
63738;SDS011;68816;45.558;10.070;2024-03-22T05:15:34;130.05;;;57.67;;
63738;SDS011;68816;45.558;10.070;2024-03-22T05:18:00;123.55;;;56.72;;
63738;SDS011;68816;45.558;10.070;2024-03-22T05:20:25;118.47;;;54.75;;
63738;SDS011;68816;45.558;10.070;2024-03-22T05:22:51;121.50;;;59.80;;
63738;SDS011;68816;45.558;10.070;2024-03-22T05:25:17;132.70;;;66.00;;
63738;SDS011;68816;45.558;10.070;2024-03-22T05:27:43;134.98;;;68.22;;
63738;SDS011;68816;45.558;10.070;2024-03-22T05:30:10;127.55;;;63.22;;
63738;SDS011;68816;45.558;10.070;2024-03-22T05:32:36;128.80;;;64.57;;
63738;SDS011;68816;45.558;10.070;2024-03-22T05:35:02;129.65;;;64.18;;
63738;SDS011;68816;45.558;10.070;2024-03-22T05:37:28;127.45;;;63.95;;
63738;SDS011;68816;45.558;10.070;2024-03-22T05:39:54;126.38;;;62.03;;
63738;SDS011;68816;45.558;10.070;2024-03-22T05:42:20;121.25;;;59.20;;
63738;SDS011;68816;45.558;10.070;2024-03-22T05:44:46;109.03;;;52.95;;
63738;SDS011;68816;45.558;10.070;2024-03-22T05:47:11;109.97;;;51.80;;
63738;SDS011;68816;45.558;10.070;2024-03-22T05:49:37;90.03;;;44.80;;
63738;SDS011;68816;45.558;10.070;2024-03-22T05:52:02;88.65;;;42.92;;
63738;SDS011;68816;45.558;10.070;2024-03-22T05:54:28;82.35;;;40.70;;
63738;SDS011;68816;45.558;10.070;2024-03-22T05:56:54;78.68;;;40.00;;
63738;SDS011;68816;45.558;10.070;2024-03-22T05:59:21;73.22;;;37.80;;
63738;SDS011;68816;45.558;10.070;2024-03-22T06:01:46;63.25;;;34.53;;
63738;SDS011;68816;45.558;10.070;2024-03-22T06:04:12;62.83;;;33.72;;
63738;SDS011;68816;45.558;10.070;2024-03-22T06:06:38;74.32;;;35.50;;
63738;SDS011;68816;45.558;10.070;2024-03-22T06:09:03;70.93;;;34.65;;
63738;SDS011;68816;45.558;10.070;2024-03-22T06:11:33;62.95;;;32.45;;
63738;SDS011;68816;45.558;10.070;2024-03-22T06:14:01;62.30;;;31.98;;
63738;SDS011;68816;45.558;10.070;2024-03-22T06:16:26;64.75;;;31.15;;
63738;SDS011;68816;45.558;10.070;2024-03-22T06:18:52;59.72;;;31.25;;
63738;SDS011;68816;45.558;10.070;2024-03-22T06:21:17;56.42;;;30.63;;
63738;SDS011;68816;45.558;10.070;2024-03-22T06:23:51;53.17;;;28.70;;
63738;SDS011;68816;45.558;10.070;2024-03-22T06:26:16;53.33;;;29.48;;
63738;SDS011;68816;45.558;10.070;2024-03-22T06:28:42;57.70;;;28.98;;
63738;SDS011;68816;45.558;10.070;2024-03-22T06:31:08;56.90;;;28.30;;
63738;SDS011;68816;45.558;10.070;2024-03-22T06:33:34;48.28;;;27.33;;
63738;SDS011;68816;45.558;10.070;2024-03-22T06:35:59;54.40;;;28.10;;
63738;SDS011;68816;45.558;10.070;2024-03-22T06:38:25;51.00;;;27.92;;
63738;SDS011;68816;45.558;10.070;2024-03-22T06:40:51;53.22;;;28.83;;
63738;SDS011;68816;45.558;10.070;2024-03-22T06:43:17;52.80;;;26.45;;
63738;SDS011;68816;45.558;10.070;2024-03-22T06:45:42;49.65;;;26.30;;
63738;SDS011;68816;45.558;10.070;2024-03-22T06:48:08;47.78;;;25.48;;
63738;SDS011;68816;45.558;10.070;2024-03-22T06:50:34;48.25;;;26.85;;
63738;SDS011;68816;45.558;10.070;2024-03-22T06:52:59;46.63;;;25.67;;
63738;SDS011;68816;45.558;10.070;2024-03-22T06:55:25;43.85;;;24.65;;
63738;SDS011;68816;45.558;10.070;2024-03-22T06:57:51;46.70;;;25.13;;
63738;SDS011;68816;45.558;10.070;2024-03-22T07:00:17;45.00;;;24.65;;
63738;SDS011;68816;45.558;10.070;2024-03-22T07:02:43;48.42;;;24.10;;
63738;SDS011;68816;45.558;10.070;2024-03-22T07:05:10;42.83;;;22.70;;
63738;SDS011;68816;45.558;10.070;2024-03-22T07:07:36;44.83;;;24.65;;
63738;SDS011;68816;45.558;10.070;2024-03-22T07:10:02;49.85;;;26.67;;
63738;SDS011;68816;45.558;10.070;2024-03-22T07:12:30;51.13;;;26.30;;
63738;SDS011;68816;45.558;10.070;2024-03-22T07:14:57;50.03;;;26.50;;
63738;SDS011;68816;45.558;10.070;2024-03-22T07:17:23;46.70;;;24.48;;
63738;SDS011;68816;45.558;10.070;2024-03-22T07:19:50;46.80;;;23.70;;
63738;SDS011;68816;45.558;10.070;2024-03-22T07:22:16;40.33;;;22.20;;
63738;SDS011;68816;45.558;10.070;2024-03-22T07:24:42;40.63;;;23.77;;
63738;SDS011;68816;45.558;10.070;2024-03-22T07:27:08;42.92;;;23.83;;
63738;SDS011;68816;45.558;10.070;2024-03-22T07:29:33;41.03;;;23.48;;
63738;SDS011;68816;45.558;10.070;2024-03-22T07:31:59;41.88;;;23.27;;
63738;SDS011;68816;45.558;10.070;2024-03-22T07:34:25;41.75;;;24.00;;
63738;SDS011;68816;45.558;10.070;2024-03-22T07:36:50;44.78;;;23.05;;
63738;SDS011;68816;45.558;10.070;2024-03-22T07:39:16;42.75;;;22.48;;
63738;SDS011;68816;45.558;10.070;2024-03-22T07:41:42;35.58;;;21.30;;
63738;SDS011;68816;45.558;10.070;2024-03-22T07:44:07;38.85;;;21.67;;
63738;SDS011;68816;45.558;10.070;2024-03-22T07:46:33;41.08;;;23.55;;
63738;SDS011;68816;45.558;10.070;2024-03-22T07:48:59;41.35;;;22.95;;
63738;SDS011;68816;45.558;10.070;2024-03-22T07:51:24;40.92;;;22.45;;
63738;SDS011;68816;45.558;10.070;2024-03-22T07:53:50;39.95;;;22.45;;
63738;SDS011;68816;45.558;10.070;2024-03-22T07:56:17;44.38;;;24.92;;
63738;SDS011;68816;45.558;10.070;2024-03-22T07:58:44;43.00;;;23.15;;
63738;SDS011;68816;45.558;10.070;2024-03-22T08:01:09;43.63;;;23.50;;
63738;SDS011;68816;45.558;10.070;2024-03-22T08:03:35;44.28;;;24.50;;
63738;SDS011;68816;45.558;10.070;2024-03-22T08:06:01;46.40;;;24.23;;
63738;SDS011;68816;45.558;10.070;2024-03-22T08:08:27;41.92;;;23.45;;
63738;SDS011;68816;45.558;10.070;2024-03-22T08:10:52;39.10;;;22.38;;
63738;SDS011;68816;45.558;10.070;2024-03-22T08:13:18;38.42;;;23.73;;
63738;SDS011;68816;45.558;10.070;2024-03-22T08:15:43;38.22;;;22.25;;
63738;SDS011;68816;45.558;10.070;2024-03-22T08:18:10;40.75;;;22.92;;
63738;SDS011;68816;45.558;10.070;2024-03-22T08:20:36;40.30;;;22.67;;
63738;SDS011;68816;45.558;10.070;2024-03-22T08:23:04;42.33;;;22.52;;
63738;SDS011;68816;45.558;10.070;2024-03-22T08:25:30;42.75;;;23.35;;
63738;SDS011;68816;45.558;10.070;2024-03-22T08:27:55;43.88;;;24.98;;
63738;SDS011;68816;45.558;10.070;2024-03-22T08:30:22;41.13;;;23.83;;
63738;SDS011;68816;45.558;10.070;2024-03-22T08:32:48;41.83;;;23.65;;
63738;SDS011;68816;45.558;10.070;2024-03-22T08:35:13;40.45;;;23.08;;
63738;SDS011;68816;45.558;10.070;2024-03-22T08:37:39;40.22;;;24.77;;
63738;SDS011;68816;45.558;10.070;2024-03-22T08:40:05;44.38;;;24.27;;
63738;SDS011;68816;45.558;10.070;2024-03-22T08:42:32;44.65;;;24.95;;
63738;SDS011;68816;45.558;10.070;2024-03-22T08:44:58;41.50;;;24.85;;
63738;SDS011;68816;45.558;10.070;2024-03-22T08:47:23;42.60;;;25.73;;
63738;SDS011;68816;45.558;10.070;2024-03-22T08:49:49;44.50;;;24.60;;
63738;SDS011;68816;45.558;10.070;2024-03-22T08:52:15;46.15;;;25.67;;
63738;SDS011;68816;45.558;10.070;2024-03-22T08:54:40;41.72;;;24.40;;
63738;SDS011;68816;45.558;10.070;2024-03-22T08:57:06;46.78;;;26.70;;
63738;SDS011;68816;45.558;10.070;2024-03-22T08:59:32;44.67;;;26.15;;
63738;SDS011;68816;45.558;10.070;2024-03-22T09:01:57;41.15;;;22.55;;
63738;SDS011;68816;45.558;10.070;2024-03-22T09:04:24;41.13;;;23.77;;
63738;SDS011;68816;45.558;10.070;2024-03-22T09:06:50;44.45;;;25.65;;
63738;SDS011;68816;45.558;10.070;2024-03-22T09:09:16;42.50;;;24.23;;
63738;SDS011;68816;45.558;10.070;2024-03-22T09:11:42;43.05;;;25.33;;
63738;SDS011;68816;45.558;10.070;2024-03-22T09:14:08;41.83;;;23.45;;
63738;SDS011;68816;45.558;10.070;2024-03-22T09:16:34;41.17;;;23.90;;
63738;SDS011;68816;45.558;10.070;2024-03-22T09:18:59;39.55;;;23.42;;
63738;SDS011;68816;45.558;10.070;2024-03-22T09:21:25;38.33;;;23.83;;
63738;SDS011;68816;45.558;10.070;2024-03-22T09:23:51;41.15;;;24.55;;
63738;SDS011;68816;45.558;10.070;2024-03-22T09:26:16;38.75;;;23.38;;
63738;SDS011;68816;45.558;10.070;2024-03-22T09:28:42;41.88;;;24.33;;
63738;SDS011;68816;45.558;10.070;2024-03-22T09:31:10;37.92;;;22.77;;
63738;SDS011;68816;45.558;10.070;2024-03-22T09:33:36;37.92;;;20.63;;
63738;SDS011;68816;45.558;10.070;2024-03-22T09:36:02;36.60;;;22.02;;
63738;SDS011;68816;45.558;10.070;2024-03-22T09:38:28;34.67;;;20.85;;
63738;SDS011;68816;45.558;10.070;2024-03-22T09:40:54;36.47;;;22.02;;
63738;SDS011;68816;45.558;10.070;2024-03-22T09:43:20;31.90;;;20.67;;
63738;SDS011;68816;45.558;10.070;2024-03-22T09:45:47;38.17;;;22.00;;
63738;SDS011;68816;45.558;10.070;2024-03-22T09:48:15;36.47;;;21.92;;
63738;SDS011;68816;45.558;10.070;2024-03-22T09:50:43;34.83;;;21.30;;
63738;SDS011;68816;45.558;10.070;2024-03-22T09:53:11;38.38;;;20.88;;
63738;SDS011;68816;45.558;10.070;2024-03-22T09:55:38;32.90;;;20.55;;
63738;SDS011;68816;45.558;10.070;2024-03-22T09:58:08;33.90;;;19.30;;
63738;SDS011;68816;45.558;10.070;2024-03-22T10:00:34;31.95;;;19.25;;
63738;SDS011;68816;45.558;10.070;2024-03-22T10:03:00;31.67;;;19.88;;
63738;SDS011;68816;45.558;10.070;2024-03-22T10:05:28;32.65;;;19.27;;
63738;SDS011;68816;45.558;10.070;2024-03-22T10:07:53;31.48;;;20.52;;
63738;SDS011;68816;45.558;10.070;2024-03-22T10:10:19;33.50;;;19.73;;
63738;SDS011;68816;45.558;10.070;2024-03-22T10:12:46;37.58;;;23.50;;
63738;SDS011;68816;45.558;10.070;2024-03-22T10:15:11;33.80;;;20.92;;
63738;SDS011;68816;45.558;10.070;2024-03-22T10:17:38;33.67;;;19.35;;
63738;SDS011;68816;45.558;10.070;2024-03-22T10:20:05;31.73;;;19.05;;
63738;SDS011;68816;45.558;10.070;2024-03-22T10:25:36;28.45;;;18.48;;
63738;SDS011;68816;45.558;10.070;2024-03-22T10:28:02;29.00;;;16.75;;
63738;SDS011;68816;45.558;10.070;2024-03-22T10:30:28;29.33;;;17.30;;
63738;SDS011;68816;45.558;10.070;2024-03-22T10:32:55;24.88;;;15.30;;
63738;SDS011;68816;45.558;10.070;2024-03-22T10:35:21;25.33;;;15.02;;
63738;SDS011;68816;45.558;10.070;2024-03-22T10:37:48;17.52;;;11.27;;
63738;SDS011;68816;45.558;10.070;2024-03-22T10:40:14;23.33;;;13.80;;
63738;SDS011;68816;45.558;10.070;2024-03-22T10:42:40;23.20;;;14.10;;
63738;SDS011;68816;45.558;10.070;2024-03-22T10:45:07;21.48;;;14.77;;
63738;SDS011;68816;45.558;10.070;2024-03-22T10:47:35;22.58;;;14.55;;
63738;SDS011;68816;45.558;10.070;2024-03-22T10:50:06;21.67;;;13.55;;
63738;SDS011;68816;45.558;10.070;2024-03-22T10:55:06;24.35;;;14.73;;
63738;SDS011;68816;45.558;10.070;2024-03-22T10:57:37;20.20;;;12.27;;
63738;SDS011;68816;45.558;10.070;2024-03-22T11:00:10;23.10;;;13.57;;
63738;SDS011;68816;45.558;10.070;2024-03-22T11:02:36;25.33;;;16.10;;
63738;SDS011;68816;45.558;10.070;2024-03-22T11:05:03;24.17;;;15.95;;
63738;SDS011;68816;45.558;10.070;2024-03-22T11:07:30;30.60;;;18.20;;
63738;SDS011;68816;45.558;10.070;2024-03-22T11:09:56;26.63;;;16.50;;
63738;SDS011;68816;45.558;10.070;2024-03-22T11:12:26;23.30;;;15.00;;
63738;SDS011;68816;45.558;10.070;2024-03-22T11:14:53;26.48;;;16.67;;
63738;SDS011;68816;45.558;10.070;2024-03-22T11:17:19;24.20;;;15.77;;
63738;SDS011;68816;45.558;10.070;2024-03-22T11:19:48;23.45;;;14.82;;
63738;SDS011;68816;45.558;10.070;2024-03-22T11:22:13;29.05;;;17.77;;
63738;SDS011;68816;45.558;10.070;2024-03-22T11:24:39;23.40;;;14.48;;
63738;SDS011;68816;45.558;10.070;2024-03-22T11:27:06;24.75;;;15.20;;
63738;SDS011;68816;45.558;10.070;2024-03-22T11:29:32;23.23;;;15.20;;
63738;SDS011;68816;45.558;10.070;2024-03-22T11:31:59;29.73;;;17.25;;
63738;SDS011;68816;45.558;10.070;2024-03-22T11:34:25;27.30;;;16.65;;
63738;SDS011;68816;45.558;10.070;2024-03-22T11:36:51;23.23;;;12.50;;
63738;SDS011;68816;45.558;10.070;2024-03-22T11:39:18;28.95;;;19.42;;
63738;SDS011;68816;45.558;10.070;2024-03-22T11:41:44;24.00;;;12.45;;
63738;SDS011;68816;45.558;10.070;2024-03-22T11:44:10;26.48;;;18.20;;
63738;SDS011;68816;45.558;10.070;2024-03-22T11:46:39;32.08;;;21.00;;
63738;SDS011;68816;45.558;10.070;2024-03-22T11:49:04;23.65;;;14.32;;
63738;SDS011;68816;45.558;10.070;2024-03-22T11:51:30;25.30;;;16.77;;
63738;SDS011;68816;45.558;10.070;2024-03-22T11:53:56;20.50;;;13.43;;
63738;SDS011;68816;45.558;10.070;2024-03-22T11:56:21;21.45;;;13.60;;
63738;SDS011;68816;45.558;10.070;2024-03-22T11:58:47;24.40;;;15.25;;
63738;SDS011;68816;45.558;10.070;2024-03-22T12:01:14;25.15;;;15.63;;
63738;SDS011;68816;45.558;10.070;2024-03-22T12:03:43;22.83;;;17.27;;
63738;SDS011;68816;45.558;10.070;2024-03-22T12:06:09;24.83;;;16.25;;
63738;SDS011;68816;45.558;10.070;2024-03-22T12:08:36;26.25;;;16.80;;
63738;SDS011;68816;45.558;10.070;2024-03-22T12:11:06;24.15;;;16.33;;
63738;SDS011;68816;45.558;10.070;2024-03-22T12:13:33;18.45;;;13.55;;
63738;SDS011;68816;45.558;10.070;2024-03-22T12:15:59;13.15;;;10.27;;
63738;SDS011;68816;45.558;10.070;2024-03-22T12:18:25;15.88;;;11.55;;
63738;SDS011;68816;45.558;10.070;2024-03-22T12:20:50;20.95;;;15.45;;
63738;SDS011;68816;45.558;10.070;2024-03-22T12:23:16;25.55;;;17.00;;
63738;SDS011;68816;45.558;10.070;2024-03-22T12:25:41;17.58;;;14.43;;
63738;SDS011;68816;45.558;10.070;2024-03-22T12:28:07;18.15;;;13.90;;
63738;SDS011;68816;45.558;10.070;2024-03-22T12:30:33;26.42;;;19.30;;
63738;SDS011;68816;45.558;10.070;2024-03-22T12:32:58;21.67;;;15.98;;
63738;SDS011;68816;45.558;10.070;2024-03-22T12:35:24;21.92;;;15.18;;
63738;SDS011;68816;45.558;10.070;2024-03-22T12:37:51;28.73;;;15.77;;
63738;SDS011;68816;45.558;10.070;2024-03-22T12:40:16;21.27;;;14.40;;
63738;SDS011;68816;45.558;10.070;2024-03-22T12:42:42;16.98;;;13.13;;
63738;SDS011;68816;45.558;10.070;2024-03-22T12:45:08;19.85;;;14.57;;
63738;SDS011;68816;45.558;10.070;2024-03-22T12:47:34;18.85;;;15.48;;
63738;SDS011;68816;45.558;10.070;2024-03-22T12:49:59;20.38;;;15.57;;
63738;SDS011;68816;45.558;10.070;2024-03-22T12:52:25;14.75;;;12.13;;
63738;SDS011;68816;45.558;10.070;2024-03-22T12:54:50;14.88;;;12.57;;
63738;SDS011;68816;45.558;10.070;2024-03-22T12:57:16;20.08;;;14.93;;
63738;SDS011;68816;45.558;10.070;2024-03-22T12:59:42;20.95;;;15.15;;
63738;SDS011;68816;45.558;10.070;2024-03-22T13:02:07;17.42;;;10.52;;
63738;SDS011;68816;45.558;10.070;2024-03-22T13:04:33;13.57;;;11.52;;
63738;SDS011;68816;45.558;10.070;2024-03-22T13:06:59;16.48;;;9.70;;
63738;SDS011;68816;45.558;10.070;2024-03-22T13:09:25;13.75;;;10.65;;
63738;SDS011;68816;45.558;10.070;2024-03-22T13:11:50;16.15;;;12.27;;
63738;SDS011;68816;45.558;10.070;2024-03-22T13:14:16;22.13;;;16.92;;
63738;SDS011;68816;45.558;10.070;2024-03-22T13:16:41;19.95;;;15.55;;
63738;SDS011;68816;45.558;10.070;2024-03-22T13:19:07;23.52;;;16.92;;
63738;SDS011;68816;45.558;10.070;2024-03-22T13:21:37;16.23;;;10.18;;
63738;SDS011;68816;45.558;10.070;2024-03-22T13:24:03;17.08;;;11.98;;
63738;SDS011;68816;45.558;10.070;2024-03-22T13:26:29;28.77;;;16.40;;
63738;SDS011;68816;45.558;10.070;2024-03-22T13:28:54;25.13;;;17.63;;
63738;SDS011;68816;45.558;10.070;2024-03-22T13:31:20;26.30;;;18.60;;
63738;SDS011;68816;45.558;10.070;2024-03-22T13:33:46;30.98;;;19.40;;
63738;SDS011;68816;45.558;10.070;2024-03-22T13:36:12;21.10;;;14.23;;
63738;SDS011;68816;45.558;10.070;2024-03-22T13:38:37;21.77;;;17.42;;
63738;SDS011;68816;45.558;10.070;2024-03-22T13:41:03;26.02;;;18.77;;
63738;SDS011;68816;45.558;10.070;2024-03-22T13:43:31;24.73;;;18.83;;
63738;SDS011;68816;45.558;10.070;2024-03-22T13:45:57;25.63;;;17.73;;
63738;SDS011;68816;45.558;10.070;2024-03-22T13:48:23;24.70;;;18.25;;
63738;SDS011;68816;45.558;10.070;2024-03-22T13:50:53;28.67;;;20.42;;
63738;SDS011;68816;45.558;10.070;2024-03-22T13:53:20;24.70;;;17.83;;
63738;SDS011;68816;45.558;10.070;2024-03-22T13:55:50;26.27;;;19.52;;
63738;SDS011;68816;45.558;10.070;2024-03-22T13:58:16;19.90;;;14.50;;
63738;SDS011;68816;45.558;10.070;2024-03-22T14:00:42;23.75;;;17.35;;
63738;SDS011;68816;45.558;10.070;2024-03-22T14:03:07;22.17;;;17.13;;
63738;SDS011;68816;45.558;10.070;2024-03-22T14:05:33;25.27;;;18.85;;
63738;SDS011;68816;45.558;10.070;2024-03-22T14:07:59;26.92;;;19.38;;
63738;SDS011;68816;45.558;10.070;2024-03-22T14:10:25;27.05;;;19.65;;
63738;SDS011;68816;45.558;10.070;2024-03-22T14:12:56;23.75;;;16.58;;